Time;durP1;ratioP1;P1;durP2;ratioP2;P2;SDS_P1;SDS_P2;PMS_P1;PMS_P2;Temp;Humidity;BMP_temperature;BMP_pressure;BME280_temperature;BME280_humidity;BME280_pressure;Samples;Min_cycle;Max_cycle;Signal;HPM_P1;HPM_P2
2021/07/03 00:00:35;;;;;;;10.83;9.90;;;18.00;99.90;;;;;;4990789;28;20317;-66
2021/07/03 00:03:01;;;;;;;9.97;9.20;;;18.00;99.90;;;;;;4978036;28;20249;-67
2021/07/03 00:05:28;;;;;;;8.93;8.33;;;18.00;99.90;;;;;;4955314;28;20617;-66
2021/07/03 00:07:56;;;;;;;10.30;9.30;;;17.90;99.90;;;;;;4973649;28;20707;-66
2021/07/03 00:10:22;;;;;;;10.50;9.60;;;17.90;99.90;;;;;;4979139;28;20629;-67
2021/07/03 00:12:48;;;;;;;9.20;8.40;;;17.80;99.90;;;;;;4971009;28;20775;-66
2021/07/03 00:15:21;;;;;;;10.80;9.80;;;17.80;99.90;;;;;;4968483;28;20202;-65
2021/07/03 00:17:47;;;;;;;11.17;10.10;;;17.80;99.90;;;;;;5002450;23;20239;-84
2021/07/03 00:20:13;;;;;;;10.33;9.33;;;17.70;99.90;;;;;;4977923;28;20676;-87
2021/07/03 00:22:39;;;;;;;10.63;9.60;;;17.70;99.90;;;;;;4962600;28;20723;-84
2021/07/03 00:25:06;;;;;;;11.10;10.10;;;17.70;99.90;;;;;;4973585;28;20618;-82
2021/07/03 00:27:31;;;;;;;10.37;9.43;;;17.70;99.90;;;;;;4957998;28;20214;-84
2021/07/03 00:29:57;;;;;;;10.17;9.10;;;17.70;99.90;;;;;;4960642;28;20634;-84
2021/07/03 00:32:23;;;;;;;11.93;10.73;;;17.60;99.90;;;;;;4956584;29;20180;-85
2021/07/03 00:34:49;;;;;;;10.73;9.73;;;17.60;99.90;;;;;;4947261;28;20633;-83
2021/07/03 00:37:15;;;;;;;11.10;10.00;;;17.60;99.90;;;;;;4970788;28;20345;-82
2021/07/03 00:39:41;;;;;;;10.87;9.87;;;17.50;99.90;;;;;;4954475;28;20626;-87
2021/07/03 00:42:07;;;;;;;11.27;10.20;;;17.50;99.90;;;;;;4956063;28;20622;-82
2021/07/03 00:44:36;;;;;;;10.63;9.73;;;17.50;99.90;;;;;;4958905;28;20183;-82
2021/07/03 00:47:04;;;;;;;11.60;10.60;;;17.40;99.90;;;;;;4958024;28;20223;-85
2021/07/03 00:49:31;;;;;;;11.03;10.13;;;17.40;99.90;;;;;;4954500;28;20626;-82
2021/07/03 00:51:57;;;;;;;11.60;10.60;;;17.30;99.90;;;;;;4955594;28;20661;-83
2021/07/03 00:54:23;;;;;;;11.03;10.10;;;17.30;99.90;;;;;;4950540;28;20650;-82
2021/07/03 00:57:01;;;;;;;10.90;10.00;;;17.30;99.90;;;;;;4958525;28;20548;-82
2021/07/03 00:59:35;;;;;;;11.27;10.27;;;17.20;99.90;;;;;;4963453;28;20650;-82
2021/07/03 01:02:02;;;;;;;11.00;10.10;;;17.20;99.90;;;;;;4952741;28;20619;-82
2021/07/03 01:04:28;;;;;;;10.60;9.60;;;17.20;99.90;;;;;;4954030;28;21233;-83
2021/07/03 01:06:54;;;;;;;11.27;10.17;;;17.10;99.90;;;;;;4958891;28;20653;-82
2021/07/03 01:09:20;;;;;;;12.13;10.93;;;17.00;99.90;;;;;;4955222;28;20690;-84
2021/07/03 01:11:46;;;;;;;11.80;10.90;;;17.10;99.90;;;;;;4950429;28;20259;-85
2021/07/03 01:14:12;;;;;;;11.10;10.00;;;17.20;99.90;;;;;;4954973;28;20207;-82
2021/07/03 01:16:37;;;;;;;10.97;10.07;;;17.00;99.90;;;;;;4956953;28;20675;-82
2021/07/03 01:19:03;;;;;;;11.10;10.20;;;16.90;99.90;;;;;;4945700;28;20184;-82
2021/07/03 01:21:29;;;;;;;10.50;9.70;;;16.90;99.90;;;;;;4956625;28;20187;-83
2021/07/03 01:23:56;;;;;;;12.63;11.50;;;16.90;99.90;;;;;;4952734;28;20194;-82
2021/07/03 01:26:22;;;;;;;11.73;10.73;;;16.90;99.90;;;;;;4954703;28;20633;-84
2021/07/03 01:28:47;;;;;;;12.00;10.57;;;16.90;99.90;;;;;;4951878;28;20622;-82
2021/07/03 01:31:13;;;;;;;11.87;10.87;;;16.90;99.90;;;;;;4956944;28;20994;-82
2021/07/03 01:33:41;;;;;;;11.77;10.60;;;16.80;99.90;;;;;;4954602;28;20233;-82
2021/07/03 01:36:06;;;;;;;12.87;11.60;;;16.80;99.90;;;;;;4952195;28;20653;-85
2021/07/03 01:38:32;;;;;;;11.50;10.50;;;16.80;99.90;;;;;;4957835;28;21176;-82
2021/07/03 01:40:58;;;;;;;12.13;10.97;;;16.70;99.90;;;;;;4957601;28;20190;-82
2021/07/03 01:43:27;;;;;;;12.70;11.60;;;16.80;99.90;;;;;;4952232;28;20623;-82
2021/07/03 01:45:54;;;;;;;11.10;10.20;;;16.70;99.90;;;;;;4953740;28;20195;-82
2021/07/03 01:48:27;;;;;;;11.80;10.70;;;16.70;99.90;;;;;;4949246;28;20662;-82
2021/07/03 01:50:54;;;;;;;12.37;11.17;;;16.60;99.90;;;;;;4955966;28;20632;-84
2021/07/03 01:53:20;;;;;;;11.30;10.27;;;16.70;99.90;;;;;;4954823;28;20877;-82
2021/07/03 01:55:45;;;;;;;12.53;11.33;;;16.60;99.90;;;;;;4948656;28;21263;-82
2021/07/03 01:58:17;;;;;;;11.70;10.60;;;16.60;99.90;;;;;;4956349;28;20211;-84
2021/07/03 02:00:43;;;;;;;12.93;11.83;;;16.80;99.90;;;;;;4955888;28;20222;-82
2021/07/03 02:03:08;;;;;;;12.73;11.60;;;16.50;99.90;;;;;;4946729;28;20626;-82
2021/07/03 02:05:34;;;;;;;12.70;11.57;;;16.50;99.90;;;;;;4953628;28;21175;-82
2021/07/03 02:07:59;;;;;;;13.03;11.73;;;16.50;99.90;;;;;;4954011;28;20266;-82
2021/07/03 02:10:25;;;;;;;11.93;10.83;;;16.40;99.90;;;;;;4951687;28;20186;-86
2021/07/03 02:12:53;;;;;;;13.40;12.27;;;16.40;99.90;;;;;;4953036;28;20203;-82
2021/07/03 02:15:18;;;;;;;11.97;10.83;;;16.40;99.90;;;;;;4944334;28;20282;-82
2021/07/03 02:17:44;;;;;;;12.90;11.70;;;16.50;99.90;;;;;;4953193;28;21231;-84
2021/07/03 02:20:10;;;;;;;12.90;11.60;;;16.60;99.90;;;;;;4948152;28;20195;-82
2021/07/03 02:22:36;;;;;;;13.70;12.40;;;16.40;99.90;;;;;;4952268;28;20561;-85
2021/07/03 02:25:01;;;;;;;13.80;12.50;;;16.40;99.90;;;;;;4953544;28;20195;-85
2021/07/03 02:27:27;;;;;;;12.90;11.80;;;16.30;99.90;;;;;;4952527;28;20747;-82
2021/07/03 02:29:53;;;;;;;12.70;11.60;;;16.30;99.90;;;;;;4949622;29;20191;-82
2021/07/03 02:32:18;;;;;;;13.63;12.43;;;16.30;99.90;;;;;;4950088;28;20190;-84
2021/07/03 02:34:44;;;;;;;14.27;13.00;;;16.20;99.90;;;;;;4951775;28;20187;-86
2021/07/03 02:37:09;;;;;;;14.87;13.57;;;16.20;99.90;;;;;;4947550;28;20214;-84
2021/07/03 02:39:35;;;;;;;13.10;11.80;;;16.40;99.90;;;;;;4946712;28;20238;-86
2021/07/03 02:42:01;;;;;;;13.83;12.23;;;16.20;99.90;;;;;;4951691;28;20234;-82
2021/07/03 02:44:26;;;;;;;13.57;12.27;;;16.10;99.90;;;;;;4943913;28;20201;-86
2021/07/03 02:46:52;;;;;;;13.57;12.40;;;16.10;99.90;;;;;;4954348;28;20293;-85
2021/07/03 02:49:20;;;;;;;13.80;12.50;;;16.30;99.90;;;;;;4950990;28;20210;-83
2021/07/03 02:51:46;;;;;;;14.67;13.27;;;16.00;99.90;;;;;;4961566;28;20186;-81
2021/07/03 02:54:11;;;;;;;13.70;12.43;;;16.00;99.90;;;;;;4943957;28;20639;-81
2021/07/03 02:56:37;;;;;;;13.57;12.37;;;15.90;99.90;;;;;;4953228;28;20226;-86
2021/07/03 02:59:05;;;;;;;15.10;13.70;;;16.00;99.90;;;;;;4948472;28;20567;-83
2021/07/03 03:01:31;;;;;;;14.17;12.87;;;15.90;99.90;;;;;;4949740;28;20612;-84
2021/07/03 03:03:56;;;;;;;14.17;12.67;;;15.90;99.90;;;;;;4950962;28;20665;-85
2021/07/03 03:06:22;;;;;;;13.60;12.40;;;15.90;99.90;;;;;;4952397;28;20188;-83
2021/07/03 03:08:48;;;;;;;15.67;14.07;;;16.00;99.90;;;;;;4951963;28;20249;-85
2021/07/03 03:11:16;;;;;;;15.40;14.00;;;15.90;99.90;;;;;;4952014;28;20207;-82
2021/07/03 03:13:41;;;;;;;14.47;13.07;;;15.90;99.90;;;;;;4953616;28;23738;-82
2021/07/03 03:16:07;;;;;;;14.77;13.37;;;15.90;99.90;;;;;;4957190;28;20630;-84
2021/07/03 03:18:32;;;;;;;13.53;12.33;;;15.90;99.90;;;;;;4958087;28;20344;-83
2021/07/03 03:20:58;;;;;;;15.50;13.90;;;15.90;99.90;;;;;;4957992;28;20438;-83
2021/07/03 03:23:23;;;;;;;14.47;13.20;;;15.90;99.90;;;;;;4956607;28;20187;-84
2021/07/03 03:25:49;;;;;;;14.80;13.43;;;15.90;99.90;;;;;;4960539;28;20218;-83
2021/07/03 03:28:15;;;;;;;15.00;13.50;;;15.80;99.90;;;;;;4951888;28;20226;-85
2021/07/03 03:30:40;;;;;;;14.70;13.40;;;15.80;99.90;;;;;;4953964;28;20216;-82
2021/07/03 03:33:06;;;;;;;15.93;14.40;;;15.80;99.90;;;;;;4955542;28;20350;-82
2021/07/03 03:35:32;;;;;;;14.57;13.17;;;15.80;99.90;;;;;;4953451;28;20211;-85
2021/07/03 03:37:57;;;;;;;15.37;13.90;;;15.70;99.90;;;;;;4955859;28;20207;-85
2021/07/03 03:40:26;;;;;;;14.63;13.23;;;15.80;99.90;;;;;;4967914;28;20195;-84
2021/07/03 03:42:52;;;;;;;13.70;12.43;;;15.80;99.90;;;;;;4982497;28;20199;-86
2021/07/03 03:45:18;;;;;;;14.83;13.40;;;15.80;99.90;;;;;;4969264;28;20650;-85
2021/07/03 03:47:43;;;;;;;14.47;13.00;;;15.80;99.90;;;;;;4960178;28;20677;-84
2021/07/03 03:50:10;;;;;;;14.87;13.40;;;15.80;99.90;;;;;;4957031;28;20190;-82
2021/07/03 03:52:35;;;;;;;15.83;14.37;;;15.80;99.90;;;;;;4957531;28;20211;-87
2021/07/03 03:55:03;;;;;;;17.27;14.80;;;15.90;99.90;;;;;;4955625;28;20981;-81
2021/07/03 03:57:31;;;;;;;16.00;14.60;;;15.90;99.90;;;;;;4953559;28;20676;-82
2021/07/03 03:59:59;;;;;;;15.33;13.83;;;15.90;99.90;;;;;;4962063;28;20626;-82
2021/07/03 04:02:25;;;;;;;18.23;15.17;;;15.80;99.90;;;;;;4952822;28;20614;-82
2021/07/03 04:04:51;;;;;;;15.90;14.37;;;15.80;99.90;;;;;;4962854;28;20702;-83
2021/07/03 04:07:18;;;;;;;16.10;14.50;;;15.90;99.90;;;;;;4953910;28;20661;-87
2021/07/03 04:09:43;;;;;;;15.67;14.20;;;15.90;99.90;;;;;;4957233;28;20690;-82
2021/07/03 04:12:09;;;;;;;17.37;15.63;;;15.90;99.90;;;;;;4954186;28;20611;-82
2021/07/03 04:14:35;;;;;;;17.00;15.40;;;15.90;99.90;;;;;;4956030;28;20199;-82
2021/07/03 04:17:01;;;;;;;18.60;16.73;;;15.90;99.90;;;;;;4953801;28;20221;-85
2021/07/03 04:19:26;;;;;;;17.10;15.40;;;15.90;99.90;;;;;;4959049;28;20187;-82
2021/07/03 04:21:52;;;;;;;16.83;15.33;;;16.00;99.90;;;;;;4965657;28;20705;-84
2021/07/03 04:24:18;;;;;;;19.33;17.33;;;16.00;99.90;;;;;;4950850;29;20183;-85
2021/07/03 04:26:44;;;;;;;20.07;17.10;;;16.00;99.90;;;;;;4950193;28;20753;-82
2021/07/03 04:29:09;;;;;;;18.40;16.60;;;16.00;99.90;;;;;;4955370;29;20653;-83
2021/07/03 04:31:35;;;;;;;18.67;16.90;;;16.00;99.90;;;;;;4957099;28;20576;-82
2021/07/03 04:34:00;;;;;;;20.13;18.13;;;16.10;99.90;;;;;;4954505;28;20199;-85
2021/07/03 04:36:26;;;;;;;20.07;17.70;;;16.20;99.90;;;;;;4949319;28;20238;-82
2021/07/03 04:38:52;;;;;;;19.93;17.97;;;16.20;99.90;;;;;;4958552;28;20183;-82
2021/07/03 04:41:17;;;;;;;21.10;19.00;;;16.20;99.90;;;;;;4958634;28;20183;-82
2021/07/03 04:43:43;;;;;;;19.03;17.13;;;16.10;99.90;;;;;;4956375;28;20202;-85
2021/07/03 04:46:08;;;;;;;19.50;17.50;;;16.20;99.90;;;;;;4960319;28;20195;-85
2021/07/03 04:48:34;;;;;;;19.83;17.87;;;16.40;99.90;;;;;;4958752;28;20289;-84
2021/07/03 04:51:00;;;;;;;18.80;16.90;;;16.40;99.90;;;;;;4959107;28;20249;-82
2021/07/03 04:53:27;;;;;;;19.80;17.80;;;16.30;99.90;;;;;;4959785;28;20207;-84
2021/07/03 04:55:53;;;;;;;19.10;16.80;;;16.40;99.90;;;;;;4970718;28;20246;-83
2021/07/03 04:58:19;;;;;;;19.70;17.33;;;16.50;99.90;;;;;;4956155;28;20655;-85
2021/07/03 05:00:44;;;;;;;19.40;17.40;;;16.60;99.90;;;;;;4954483;28;20580;-82
2021/07/03 05:03:10;;;;;;;19.43;17.53;;;16.70;99.90;;;;;;4957586;28;20191;-82
2021/07/03 05:05:35;;;;;;;19.17;17.27;;;16.60;99.90;;;;;;4961249;28;20191;-86
2021/07/03 05:08:04;;;;;;;19.20;17.30;;;16.80;99.90;;;;;;4956136;28;20206;-82
2021/07/03 05:10:30;;;;;;;19.17;17.23;;;16.60;99.90;;;;;;4955386;28;20669;-82
2021/07/03 05:12:55;;;;;;;20.27;18.37;;;16.60;99.90;;;;;;4957743;28;20642;-83
2021/07/03 05:15:21;;;;;;;18.20;16.37;;;16.70;99.90;;;;;;4959178;28;20202;-82
2021/07/03 05:17:47;;;;;;;19.67;17.63;;;16.70;99.90;;;;;;4920125;28;1128397;-84
2021/07/03 05:20:14;;;;;;;19.63;17.43;;;16.80;99.90;;;;;;4956484;28;20179;-81
2021/07/03 05:22:40;;;;;;;20.43;16.60;;;16.90;99.90;;;;;;4960233;28;20191;-83
2021/07/03 05:25:06;;;;;;;19.47;16.77;;;16.90;99.90;;;;;;4959768;28;20643;-82
2021/07/03 05:27:32;;;;;;;17.27;15.60;;;16.90;99.90;;;;;;4959361;28;21011;-82
2021/07/03 05:29:58;;;;;;;19.20;17.30;;;16.90;99.90;;;;;;4962421;28;20618;-82
2021/07/03 05:32:23;;;;;;;18.13;16.33;;;16.90;99.90;;;;;;4953813;28;20187;-85
2021/07/03 05:34:49;;;;;;;17.07;15.10;;;17.00;99.90;;;;;;4959331;28;20183;-82
2021/07/03 05:37:15;;;;;;;16.70;14.90;;;17.00;99.90;;;;;;4958823;28;20213;-81
2021/07/03 05:39:40;;;;;;;16.53;14.90;;;17.00;99.90;;;;;;4951754;28;20577;-83
2021/07/03 05:42:06;;;;;;;16.10;14.50;;;17.10;99.90;;;;;;4957552;28;20183;-82
2021/07/03 05:44:32;;;;;;;14.53;13.10;;;17.20;99.90;;;;;;4956660;28;20183;-84
2021/07/03 05:46:58;;;;;;;13.87;12.57;;;17.20;99.90;;;;;;4959915;28;20282;-86
2021/07/03 05:49:23;;;;;;;13.30;12.00;;;17.20;99.90;;;;;;4973574;28;20253;-82
2021/07/03 05:51:49;;;;;;;13.30;11.43;;;17.50;99.90;;;;;;4954296;28;20569;-82
2021/07/03 05:54:17;;;;;;;12.77;11.57;;;17.30;99.90;;;;;;4954880;28;20654;-82
2021/07/03 05:56:43;;;;;;;11.93;10.80;;;17.40;99.90;;;;;;4955376;28;20210;-83
2021/07/03 05:59:09;;;;;;;12.10;10.90;;;17.40;99.90;;;;;;4955430;28;20611;-82
2021/07/03 06:01:35;;;;;;;11.50;10.37;;;17.60;99.90;;;;;;4955094;28;20191;-84
2021/07/03 06:04:03;;;;;;;10.70;9.70;;;17.60;99.90;;;;;;4950821;28;20258;-84
2021/07/03 06:06:28;;;;;;;11.20;10.20;;;17.60;99.90;;;;;;4945863;28;20254;-86
2021/07/03 06:08:54;;;;;;;9.80;8.90;;;17.70;99.90;;;;;;4955074;28;20997;-82
2021/07/03 06:11:19;;;;;;;9.37;8.50;;;17.70;99.90;;;;;;4956631;28;20364;-83
2021/07/03 06:13:45;;;;;;;9.40;8.50;;;17.70;99.90;;;;;;4956242;28;20587;-82
2021/07/03 06:16:11;;;;;;;9.07;8.20;;;17.70;99.90;;;;;;4957823;28;20230;-83
2021/07/03 06:18:36;;;;;;;8.70;7.90;;;17.80;99.90;;;;;;4962044;23;20622;-65
2021/07/03 06:21:02;;;;;;;7.90;7.13;;;17.80;99.90;;;;;;4947955;28;20179;-64
2021/07/03 06:23:29;;;;;;;8.87;7.60;;;17.80;99.90;;;;;;4926503;29;20211;-65
2021/07/03 06:25:55;;;;;;;7.90;7.20;;;17.90;99.90;;;;;;4930039;29;20198;-64
2021/07/03 06:28:20;;;;;;;7.87;7.17;;;17.90;99.90;;;;;;4932688;29;20674;-65
2021/07/03 06:30:48;;;;;;;7.47;6.87;;;18.00;99.90;;;;;;4940804;29;20849;-65
2021/07/03 06:33:14;;;;;;;8.23;7.43;;;18.00;99.90;;;;;;4938421;29;20516;-65
2021/07/03 06:35:39;;;;;;;7.77;7.07;;;18.00;99.90;;;;;;4945168;28;20642;-65
2021/07/03 06:38:06;;;;;;;7.20;6.60;;;18.00;99.90;;;;;;4932665;29;20192;-64
2021/07/03 06:40:31;;;;;;;8.70;7.33;;;18.00;99.90;;;;;;4939304;29;20184;-65
2021/07/03 06:42:57;;;;;;;6.90;6.30;;;18.00;99.90;;;;;;4939029;29;20643;-64
2021/07/03 06:45:23;;;;;;;7.20;6.60;;;18.00;99.90;;;;;;4935774;29;20636;-64
2021/07/03 06:47:49;;;;;;;9.60;6.57;;;18.10;99.90;;;;;;4938461;28;20192;-64
2021/07/03 06:50:15;;;;;;;6.27;5.70;;;18.10;99.90;;;;;;4941703;29;20622;-65
2021/07/03 06:52:43;;;;;;;6.37;5.77;;;18.10;99.90;;;;;;4938638;29;20239;-64
2021/07/03 06:55:09;;;;;;;6.60;5.57;;;18.10;99.90;;;;;;4940229;29;20606;-65
2021/07/03 06:57:34;;;;;;;5.87;5.37;;;18.10;99.90;;;;;;4948924;29;20977;-65
2021/07/03 07:00:04;;;;;;;6.40;5.83;;;18.10;99.90;;;;;;4932365;29;20618;-65
2021/07/03 07:02:30;;;;;;;7.17;6.00;;;18.10;99.90;;;;;;4918359;29;20216;-63
2021/07/03 07:04:56;;;;;;;6.20;5.60;;;18.20;99.90;;;;;;4934807;29;20607;-64
2021/07/03 07:07:21;;;;;;;6.30;5.70;;;18.20;99.90;;;;;;4928779;29;20601;-65
2021/07/03 07:09:47;;;;;;;7.13;5.70;;;18.30;99.90;;;;;;4937357;29;20180;-66
2021/07/03 07:12:13;;;;;;;6.37;5.67;;;18.30;99.90;;;;;;4947443;29;20291;-66
2021/07/03 07:14:40;;;;;;;7.40;6.50;;;18.30;99.90;;;;;;4931888;29;20224;-66
2021/07/03 07:17:05;;;;;;;6.80;5.83;;;18.40;99.90;;;;;;4937955;28;20180;-65
2021/07/03 07:19:31;;;;;;;6.50;5.90;;;18.50;99.90;;;;;;4947765;29;20631;-66
2021/07/03 07:21:57;;;;;;;6.53;5.90;;;18.60;99.90;;;;;;4938175;29;20774;-66
2021/07/03 07:24:22;;;;;;;6.60;6.00;;;18.60;99.90;;;;;;4941753;29;20195;-65
2021/07/03 07:26:48;;;;;;;5.90;5.33;;;18.70;99.90;;;;;;4922745;29;20183;-66
2021/07/03 07:29:14;;;;;;;5.67;5.17;;;18.70;99.90;;;;;;4938024;29;20184;-66
2021/07/03 07:31:40;;;;;;;5.97;5.47;;;18.80;99.90;;;;;;4926331;29;20672;-66
2021/07/03 07:34:05;;;;;;;6.00;5.50;;;18.80;99.90;;;;;;4937097;28;20267;-66
2021/07/03 07:36:31;;;;;;;6.30;5.70;;;18.90;99.90;;;;;;4923967;29;20675;-65
2021/07/03 07:38:56;;;;;;;6.20;5.60;;;18.90;99.90;;;;;;4940302;29;20219;-65
2021/07/03 07:41:22;;;;;;;5.53;5.13;;;19.00;99.90;;;;;;4943938;29;22299;-67
2021/07/03 07:43:48;;;;;;;6.30;5.80;;;19.10;99.90;;;;;;4935089;29;20216;-67
2021/07/03 07:46:13;;;;;;;6.03;5.47;;;19.10;99.90;;;;;;4940644;29;20652;-67
2021/07/03 07:48:40;;;;;;;5.77;5.27;;;19.20;99.90;;;;;;4940444;28;20224;-67
2021/07/03 07:51:06;;;;;;;6.10;5.60;;;19.30;99.90;;;;;;4933714;29;20488;-67
2021/07/03 07:53:32;;;;;;;6.03;5.47;;;19.30;99.90;;;;;;4930569;29;20658;-68
2021/07/03 07:56:01;;;;;;;6.10;5.50;;;19.30;99.90;;;;;;4916996;29;20195;-67
2021/07/03 07:58:26;;;;;;;5.77;5.27;;;19.30;99.90;;;;;;4926467;29;20671;-67
2021/07/03 08:00:53;;;;;;;6.33;5.73;;;19.40;99.90;;;;;;4934844;29;20719;-67
2021/07/03 08:03:19;;;;;;;6.07;5.57;;;19.40;99.90;;;;;;4907228;29;20219;-68
2021/07/03 08:05:44;;;;;;;6.23;5.73;;;19.40;99.90;;;;;;4933904;28;20631;-67
2021/07/03 08:08:11;;;;;;;5.53;5.03;;;19.50;99.90;;;;;;4919520;29;20627;-67
2021/07/03 08:10:38;;;;;;;5.07;4.63;;;19.50;99.90;;;;;;4923329;29;20192;-67
2021/07/03 08:13:05;;;;;;;5.90;5.30;;;19.50;99.90;;;;;;4938796;28;21195;-67
2021/07/03 08:15:31;;;;;;;5.50;4.97;;;19.50;99.90;;;;;;4916896;29;20629;-67
2021/07/03 08:17:59;;;;;;;5.53;5.07;;;19.50;99.90;;;;;;4930814;28;20619;-67
2021/07/03 08:20:24;;;;;;;5.83;5.23;;;19.50;99.90;;;;;;4920415;29;20611;-67
2021/07/03 08:22:54;;;;;;;6.13;5.53;;;19.50;99.90;;;;;;4932877;29;21164;-67
2021/07/03 08:25:21;;;;;;;5.83;5.33;;;19.60;99.90;;;;;;4942650;29;20207;-67
2021/07/03 08:27:49;;;;;;;6.13;5.53;;;19.60;99.90;;;;;;4932801;28;21195;-67
2021/07/03 08:30:17;;;;;;;6.10;5.60;;;19.60;99.90;;;;;;4913613;29;20623;-67
2021/07/03 08:32:43;;;;;;;5.50;5.00;;;19.60;99.90;;;;;;4920316;29;20659;-67
2021/07/03 08:35:10;;;;;;;5.30;4.80;;;19.70;99.90;;;;;;4921393;29;20621;-67
2021/07/03 08:37:35;;;;;;;6.03;5.53;;;19.80;99.90;;;;;;4930409;29;20212;-66
2021/07/03 08:40:03;;;;;;;6.20;5.50;;;20.00;99.90;;;;;;4937085;29;20624;-68
2021/07/03 08:42:29;;;;;;;6.23;5.40;;;19.90;99.90;;;;;;4923070;29;20211;-66
2021/07/03 08:44:55;;;;;;;5.70;5.30;;;19.90;99.90;;;;;;4936546;29;22753;-66
2021/07/03 08:47:20;;;;;;;5.57;5.17;;;19.90;99.90;;;;;;4939128;29;20192;-67
2021/07/03 08:49:57;;;;;;;5.63;5.07;;;19.90;99.90;;;;;;4933199;29;20207;-66
2021/07/03 08:52:26;;;;;;;5.30;4.80;;;19.90;99.90;;;;;;4945543;29;20694;-68
2021/07/03 08:55:01;;;;;;;5.50;5.10;;;20.00;99.90;;;;;;4941516;29;20634;-69
2021/07/03 08:57:26;;;;;;;7.40;5.23;;;20.10;99.90;;;;;;4942785;29;22366;-69
2021/07/03 08:59:59;;;;;;;5.53;4.90;;;20.10;99.90;;;;;;4919334;29;21242;-68
2021/07/03 09:02:38;;;;;;;4.93;4.53;;;20.20;99.90;;;;;;4935616;29;20271;-68
2021/07/03 09:05:26;;;;;;;5.83;4.60;;;20.20;99.90;;;;;;4933893;29;20634;-69
2021/07/03 09:07:57;;;;;;;4.40;4.00;;;20.20;99.90;;;;;;4932230;29;20706;-68
2021/07/03 09:10:22;;;;;;;4.90;4.50;;;20.40;99.90;;;;;;4938705;29;21137;-66
2021/07/03 09:12:50;;;;;;;4.70;4.20;;;20.50;99.90;;;;;;4938903;29;20773;-66
2021/07/03 09:15:22;;;;;;;4.70;4.30;;;20.60;99.90;;;;;;4937911;29;20195;-66
2021/07/03 09:17:53;;;;;;;4.53;4.13;;;20.60;99.90;;;;;;4935951;29;20616;-66
2021/07/03 09:20:31;;;;;;;4.70;4.30;;;20.60;99.90;;;;;;4936620;28;20637;-66
2021/07/03 09:23:04;;;;;;;5.00;4.60;;;20.60;99.90;;;;;;4918231;29;20666;-65
2021/07/03 09:25:30;;;;;;;4.73;4.33;;;20.60;99.90;;;;;;4940469;29;20663;-66
2021/07/03 09:28:03;;;;;;;4.63;4.23;;;20.70;99.90;;;;;;4935496;29;21175;-66
2021/07/03 09:30:29;;;;;;;4.83;4.53;;;20.80;99.90;;;;;;4932886;29;20645;-66
2021/07/03 09:32:55;;;;;;;4.37;3.97;;;20.90;99.90;;;;;;4908698;29;21743;-66
2021/07/03 09:35:21;;;;;;;4.00;3.70;;;21.00;99.90;;;;;;4917513;29;20641;-66
2021/07/03 09:37:48;;;;;;;3.90;3.60;;;21.10;99.90;;;;;;4934029;29;20437;-66
2021/07/03 09:40:15;;;;;;;4.20;3.90;;;21.20;99.90;;;;;;4933381;29;20680;-65
2021/07/03 09:42:42;;;;;;;3.87;3.57;;;21.20;99.90;;;;;;4932869;29;20679;-66
2021/07/03 09:45:09;;;;;;;3.90;3.60;;;21.20;99.90;;;;;;4935512;29;20620;-65
2021/07/03 09:47:35;;;;;;;3.60;3.40;;;21.20;99.90;;;;;;4938185;29;20634;-65
2021/07/03 09:50:11;;;;;;;3.67;3.37;;;21.20;99.90;;;;;;4929952;29;20610;-65
2021/07/03 09:52:38;;;;;;;3.67;3.37;;;21.20;99.90;;;;;;4930863;29;20678;-65
2021/07/03 09:55:08;;;;;;;3.83;3.53;;;21.10;99.90;;;;;;4933190;29;20627;-65
2021/07/03 09:57:36;;;;;;;4.10;3.37;;;21.10;99.90;;;;;;4918846;29;21194;-65
2021/07/03 10:00:09;;;;;;;4.10;3.80;;;21.10;99.90;;;;;;4930589;29;20616;-65
2021/07/03 10:02:35;;;;;;;3.83;3.53;;;21.10;99.90;;;;;;4940733;29;20688;-65
2021/07/03 10:05:01;;;;;;;3.70;3.50;;;21.20;99.90;;;;;;4933288;29;20666;-65
2021/07/03 10:07:43;;;;;;;3.63;3.33;;;21.20;99.90;;;;;;4925636;29;20188;-66
2021/07/03 10:10:13;;;;;;;4.53;3.80;;;21.20;99.90;;;;;;4944430;29;20695;-66
2021/07/03 10:12:50;;;;;;;3.60;3.30;;;21.30;99.90;;;;;;4933017;28;20648;-66
2021/07/03 10:15:35;;;;;;;4.13;3.73;;;21.40;99.90;;;;;;4941134;29;20653;-65
2021/07/03 10:18:14;;;;;;;3.60;3.30;;;21.40;99.90;;;;;;4933235;29;20715;-66
2021/07/03 10:20:40;;;;;;;4.53;4.13;;;21.50;99.90;;;;;;4946697;29;20623;-65
2021/07/03 10:23:06;;;;;;;3.53;3.30;;;21.50;99.90;;;;;;4922019;29;21059;-65
2021/07/03 10:25:39;;;;;;;3.37;3.17;;;21.60;99.90;;;;;;4940178;29;20718;-66
2021/07/03 10:28:08;;;;;;;4.00;3.67;;;21.60;99.90;;;;;;4936892;29;20187;-65
2021/07/03 10:30:38;;;;;;;3.87;3.57;;;21.60;99.90;;;;;;4936608;29;20684;-66
2021/07/03 10:33:04;;;;;;;4.33;3.73;;;21.70;99.90;;;;;;4939173;29;20773;-65
2021/07/03 10:35:48;;;;;;;3.63;3.33;;;21.80;99.90;;;;;;4921224;29;21228;-65
2021/07/03 10:38:19;;;;;;;3.70;3.50;;;21.90;99.90;;;;;;4926759;29;20187;-65
2021/07/03 10:40:45;;;;;;;4.00;3.70;;;21.90;99.90;;;;;;4935857;29;20921;-66
2021/07/03 10:43:13;;;;;;;3.40;3.10;;;21.90;99.90;;;;;;4944911;29;20718;-65
2021/07/03 10:46:08;;;;;;;3.70;3.40;;;21.90;99.90;;;;;;4936374;29;20632;-65
2021/07/03 10:48:33;;;;;;;3.70;3.40;;;21.90;99.90;;;;;;4930897;29;20710;-65
2021/07/03 10:51:09;;;;;;;3.63;3.37;;;22.00;99.90;;;;;;4924513;29;20639;-65
2021/07/03 10:53:35;;;;;;;3.60;3.30;;;22.10;99.90;;;;;;4921717;29;20326;-65
2021/07/03 10:56:11;;;;;;;3.43;3.13;;;22.10;99.90;;;;;;4921821;29;20620;-65
2021/07/03 10:58:38;;;;;;;3.40;3.20;;;22.20;99.90;;;;;;4931039;29;20183;-65
2021/07/03 11:01:15;;;;;;;3.40;3.10;;;22.10;99.90;;;;;;4922559;29;20706;-65
2021/07/03 11:03:45;;;;;;;3.23;2.93;;;22.10;99.90;;;;;;4936079;28;20667;-65
2021/07/03 11:06:20;;;;;;;3.43;3.13;;;22.20;99.90;;;;;;4912079;29;20646;-65
2021/07/03 11:08:46;;;;;;;3.53;3.23;;;22.30;99.90;;;;;;4940025;29;21215;-66
2021/07/03 11:11:14;;;;;;;4.13;3.73;;;22.30;99.90;;;;;;4954772;29;20618;-66
2021/07/03 11:13:41;;;;;;;3.20;3.00;;;22.20;99.90;;;;;;4940277;29;20667;-66
2021/07/03 11:16:09;;;;;;;3.40;3.20;;;22.20;99.90;;;;;;4921328;29;21195;-65
2021/07/03 11:18:43;;;;;;;3.60;3.20;;;22.20;99.90;;;;;;4933089;29;20982;-66
2021/07/03 11:21:11;;;;;;;3.67;3.37;;;22.20;99.90;;;;;;4936347;29;20627;-65
2021/07/03 11:23:37;;;;;;;3.03;2.83;;;22.30;99.90;;;;;;4914346;29;21131;-65
2021/07/03 11:26:11;;;;;;;4.40;4.10;;;22.40;99.90;;;;;;4941734;29;20642;-66
2021/07/03 11:28:37;;;;;;;3.33;3.03;;;22.50;99.90;;;;;;4943481;29;20614;-65
2021/07/03 11:31:06;;;;;;;3.57;3.30;;;22.60;99.90;;;;;;4943808;29;21218;-66
2021/07/03 11:33:34;;;;;;;3.47;3.20;;;22.60;99.90;;;;;;4939968;29;20675;-65
2021/07/03 11:36:00;;;;;;;3.20;3.00;;;22.80;99.90;;;;;;4926818;29;20616;-65
2021/07/03 11:38:27;;;;;;;3.27;2.97;;;22.90;99.90;;;;;;4944301;29;20706;-67
2021/07/03 11:41:01;;;;;;;3.37;3.07;;;22.90;99.90;;;;;;4923754;29;20628;-68
2021/07/03 11:43:29;;;;;;;3.87;3.57;;;23.10;99.90;;;;;;4936788;29;20718;-65
2021/07/03 11:45:55;;;;;;;3.50;3.10;;;23.10;99.90;;;;;;4942354;29;20620;-66
2021/07/03 11:48:25;;;;;;;3.67;3.47;;;23.10;99.90;;;;;;4942956;29;20654;-65
2021/07/03 11:50:59;;;;;;;3.50;3.20;;;23.10;99.90;;;;;;4936319;29;20187;-65
2021/07/03 11:53:31;;;;;;;4.43;3.40;;;23.20;99.90;;;;;;4935744;29;20754;-66
2021/07/03 11:56:02;;;;;;;3.30;3.10;;;23.40;99.90;;;;;;4942955;29;20807;-65
2021/07/03 11:58:33;;;;;;;3.57;3.27;;;23.50;99.90;;;;;;4940706;29;20668;-66
2021/07/03 12:01:01;;;;;;;3.30;3.10;;;23.70;99.90;;;;;;4927888;29;21197;-67
2021/07/03 12:03:32;;;;;;;3.37;3.17;;;23.70;99.90;;;;;;4938039;29;20677;-66
2021/07/03 12:05:59;;;;;;;3.33;3.13;;;23.80;99.90;;;;;;4941635;29;20630;-66
2021/07/03 12:08:32;;;;;;;3.13;2.83;;;23.80;99.90;;;;;;4924280;29;20651;-66
2021/07/03 12:11:01;;;;;;;3.07;2.87;;;23.80;99.90;;;;;;4944345;29;20980;-66
2021/07/03 12:13:31;;;;;;;2.80;2.60;;;23.80;99.90;;;;;;4951172;29;20666;-66
2021/07/03 12:15:57;;;;;;;3.30;3.07;;;23.90;99.90;;;;;;4941162;29;20634;-66
2021/07/03 12:18:36;;;;;;;3.20;3.00;;;24.00;99.90;;;;;;4942684;29;20626;-66
2021/07/03 12:21:07;;;;;;;3.70;3.00;;;24.20;99.90;;;;;;4944332;29;20184;-66
2021/07/03 12:23:37;;;;;;;3.53;3.23;;;24.30;99.90;;;;;;4946758;29;20650;-65
2021/07/03 12:26:06;;;;;;;3.33;3.10;;;24.40;99.90;;;;;;4937180;29;21147;-66
2021/07/03 12:28:35;;;;;;;3.33;3.13;;;24.50;99.90;;;;;;4925285;29;21221;-66
2021/07/03 12:31:09;;;;;;;3.03;2.80;;;24.60;99.90;;;;;;4943577;29;20620;-70
2021/07/03 12:33:35;;;;;;;3.00;2.80;;;24.60;99.90;;;;;;4927080;28;20663;-66
2021/07/03 12:36:02;;;;;;;3.10;2.90;;;24.60;99.90;;;;;;4933518;29;20618;-66
2021/07/03 12:38:28;;;;;;;3.17;2.97;;;24.60;99.90;;;;;;4935130;29;20695;-66